Extrem niedrige Temperatur Gültig von: 29-11-2020 18:00 bis: 30-11-2020 11:00 Warnung für: Extrem niedrige Temperatur Gefahrenstufe: Gelb info button

Meine Webcam more information My webcam


Donnerradar more information blitzortung!


Regenradar more information rain snow radar



METAR-Meldungen aus der Umgebung

   
EDDH - Hamburg
Aktualisierung: 30-11-2020 04:50
Stark bewölkt  
Stark bewölkt  
   Wind: SW 5.6 km/h
Wind: SW 5.6 km/h
Temperatur: 2°C
Gefühlt: 1°C
Taupunkt: -1°C
Luftfeuchte: 81%
Luftdruck: 1026 hPa
Bewölkt: Stark bewölkt
Sichtbarkeit: More than 10 km
Bewölkung: Stark bewölkt 2000 ft
EDDH 300350Z 23003KT 9999 BKN020 02/M01 Q1026 NOSIG
EDHL - Lübeck
Aktualisierung: 29-11-2020 21:50
Nicht aktuell
Stark bewölkt  
Stark bewölkt  
   Wind: variiert 3.7 km/h
Wind: variiert 3.7 km/h
Temperatur: 3°C
Taupunkt: 0°C
Luftfeuchte: 81%
Luftdruck: 1027 hPa
Bewölkt: Stark bewölkt
Sichtbarkeit: More than 10 km
Bewölkung: Stark bewölkt 2200 ft
EDHL 292050Z VRB02KT 9999 BKN022 03/M00 Q1027
EHBK - Amsterdam
Aktualisierung: 30-11-2020 04:55
Nebel, Bewölkt  
Nebel, Bewölkt  
   Wind: WSW 9.3 km/h
Wind: WSW 9.3 km/h
Temperatur: -1°C
Gefühlt: -4°C
Taupunkt: -2°C
Luftfeuchte: 93%
Luftdruck: 1026 hPa
Bewölkt: Bewölkt
Sichtbarkeit: 3 km
Bewölkung: Stark bewölkt 200 ft,
Stark bewölkt 300 ft,
Bewölkt 800 ft
EHBK 300355Z AUTO 24005KT 210V270 2500 BR BKN002 BKN003 OVC008 M01/M02 Q1026
EBCV - Mons/Bergen
Aktualisierung: 30-11-2020 04:55
Bewölkt  
Bewölkt  
   Wind: SW 13 km/h
Wind: SW 13 km/h
Temperatur: 0°C
Gefühlt: -4°C
Taupunkt: -1°C
Luftfeuchte: 93%
Luftdruck: 1026 hPa
Bewölkt: Bewölkt
Bewölkung: Bewölkt 600 ft
EBCV 300355Z AUTO 22007KT //// OVC006/// 00/M01 Q1026 YLO
ELLX - Luxemburg
Aktualisierung: 30-11-2020 04:50
Klar  
Klar  
   Wind: NO 7.4 km/h
Wind: NO 7.4 km/h
Temperatur: -4°C
Gefühlt: -7°C
Taupunkt: -5°C
Luftfeuchte: 93%
Luftdruck: 1025 hPa
Sichtbarkeit: More than 10 km
Bewölkung: Klar
ELLX 300350Z 04004KT CAVOK M04/M05 Q1025 NOSIG
EBOS - Oostende
Aktualisierung: 30-11-2020 04:50
Nebel, Stark bewölkt  
Nebel, Stark bewölkt  
   Wind: Süden 11.1 km/h
Wind: Süden 11.1 km/h
Temperatur: 2°C
Gefühlt: -1°C
Taupunkt: 1°C
Luftfeuchte: 93%
Luftdruck: 1026 hPa
Bewölkt: Stark bewölkt
Sichtbarkeit: 2 km
Bewölkung: Stark bewölkt 400 ft
EBOS 300350Z 19006KT 2400 BR BKN004 02/01 Q1026 TEMPO 1400 BR

Script entwickelt von  Saratoga-weather.org Angepasst für das Template von  Weerstation Leuven

Sie finden meine Wetter-Infos auch auf:

Weather Underground

Germany Weather Network

AWEKAS

WeatherlinkIP

Von mir verwendete Ausrüstung:

Wetterstation
Davis VP2

Wetterprogramm
Weather Display

WetterComputer
RaspberryPi

Anbieter
1und1

Davis VP2

Weather Display

RaspberryPi

1und1